createdAt,value
2022-08-17T00:01:52.845Z,99.90
2022-08-17T00:04:25.319Z,99.90
2022-08-17T00:06:53.648Z,99.90
2022-08-17T00:09:23.960Z,99.90
2022-08-17T00:12:41.651Z,99.90
2022-08-17T00:14:52.985Z,99.90
2022-08-17T00:17:23.390Z,99.90
2022-08-17T00:19:54.202Z,99.90
2022-08-17T00:22:36.492Z,99.90
2022-08-17T00:25:09.724Z,99.90
2022-08-17T00:27:40.933Z,99.90
2022-08-17T00:30:18.000Z,99.90
2022-08-17T00:33:12.526Z,99.90
2022-08-17T00:35:53.187Z,99.90
2022-08-17T00:38:23.202Z,99.90
2022-08-17T00:41:01.733Z,99.90
2022-08-17T00:43:46.706Z,99.90
2022-08-17T00:46:28.783Z,99.90
2022-08-17T00:48:58.347Z,99.90
2022-08-17T00:51:44.201Z,99.90
2022-08-17T00:54:41.013Z,99.90
2022-08-17T00:57:40.195Z,99.90
2022-08-17T01:00:27.683Z,99.90
2022-08-17T01:03:07.357Z,99.90
2022-08-17T01:05:42.231Z,99.90
2022-08-17T01:08:18.910Z,99.90
2022-08-17T01:11:01.809Z,99.90
2022-08-17T01:13:42.564Z,99.90
2022-08-17T01:16:37.751Z,99.90
2022-08-17T01:19:21.075Z,99.90
2022-08-17T01:22:06.399Z,99.90
2022-08-17T01:24:39.815Z,99.90
2022-08-17T01:27:13.705Z,99.90
2022-08-17T01:29:55.400Z,99.90
2022-08-17T01:32:22.510Z,99.90
2022-08-17T01:34:51.016Z,99.90
2022-08-17T01:37:21.000Z,99.90
2022-08-17T01:39:52.917Z,99.90
2022-08-17T01:42:44.182Z,99.90
2022-08-17T01:45:23.183Z,99.90
2022-08-17T01:47:51.591Z,99.90
2022-08-17T01:50:26.776Z,99.90
2022-08-17T01:53:04.572Z,99.90
2022-08-17T01:55:39.726Z,99.90
2022-08-17T01:58:09.985Z,99.90
2022-08-17T02:01:00.021Z,99.90
2022-08-17T02:03:29.218Z,99.90
2022-08-17T02:05:56.471Z,99.90
2022-08-17T02:08:36.995Z,99.90
2022-08-17T02:11:11.953Z,99.90
2022-08-17T02:13:39.860Z,99.90
2022-08-17T02:16:07.015Z,99.90
2022-08-17T02:18:34.160Z,99.90
2022-08-17T02:21:02.353Z,99.90
2022-08-17T02:23:32.471Z,99.90
2022-08-17T02:26:01.296Z,99.90
2022-08-17T02:28:29.445Z,99.90
2022-08-17T02:31:02.669Z,99.90
2022-08-17T02:33:42.611Z,99.90
2022-08-17T02:36:12.308Z,99.90
2022-08-17T02:38:40.868Z,99.90
2022-08-17T02:41:08.648Z,99.90
2022-08-17T02:43:36.296Z,99.90
2022-08-17T02:46:03.444Z,99.90
2022-08-17T02:48:32.023Z,99.90
2022-08-17T02:51:01.138Z,99.90
2022-08-17T02:53:35.579Z,99.90
2022-08-17T02:56:04.312Z,99.90
2022-08-17T02:58:35.301Z,99.90
2022-08-17T03:01:05.204Z,99.90
2022-08-17T03:03:32.995Z,99.90
2022-08-17T03:06:00.397Z,99.90
2022-08-17T03:08:28.315Z,99.90
2022-08-17T03:10:55.545Z,99.90
2022-08-17T03:13:23.397Z,99.90
2022-08-17T03:15:51.140Z,99.90
2022-08-17T03:18:24.841Z,99.90
2022-08-17T03:20:59.176Z,99.90
2022-08-17T03:23:29.569Z,99.90
2022-08-17T03:26:01.021Z,99.90
2022-08-17T03:28:29.512Z,99.90
2022-08-17T03:30:56.740Z,99.90
2022-08-17T03:33:24.072Z,99.90
2022-08-17T03:35:51.826Z,99.90
2022-08-17T03:38:20.215Z,99.90
2022-08-17T03:40:59.108Z,99.90
2022-08-17T03:43:29.515Z,99.90
2022-08-17T03:46:27.823Z,99.90
2022-08-17T03:49:15.414Z,99.90
2022-08-17T03:52:01.229Z,99.90
2022-08-17T03:54:47.039Z,99.90
2022-08-17T03:57:14.236Z,99.90
2022-08-17T03:59:42.000Z,99.90
2022-08-17T04:02:24.551Z,99.90
2022-08-17T04:04:52.750Z,99.90
2022-08-17T04:07:26.066Z,99.90
2022-08-17T04:09:53.535Z,99.90
2022-08-17T04:12:24.535Z,99.90
2022-08-17T04:14:54.734Z,99.90
2022-08-17T04:17:25.343Z,99.90
2022-08-17T04:19:53.444Z,99.90
2022-08-17T04:22:32.089Z,99.90
2022-08-17T04:25:19.314Z,99.90
2022-08-17T04:27:46.719Z,99.90
2022-08-17T04:30:14.079Z,99.90
2022-08-17T04:33:04.386Z,99.90
2022-08-17T04:35:47.271Z,99.90
2022-08-17T04:38:18.993Z,99.90
2022-08-17T04:41:04.523Z,99.90
2022-08-17T04:43:33.306Z,99.90
2022-08-17T04:46:04.846Z,99.90
2022-08-17T04:48:38.677Z,99.90
2022-08-17T04:51:27.353Z,99.90
2022-08-17T04:54:02.214Z,99.90
2022-08-17T04:56:30.990Z,99.90
2022-08-17T04:59:05.079Z,99.90
2022-08-17T05:01:35.470Z,99.90
2022-08-17T05:04:33.459Z,99.90
2022-08-17T05:06:57.199Z,99.90
2022-08-17T05:09:24.506Z,99.90
2022-08-17T05:11:51.591Z,99.90
2022-08-17T05:14:18.732Z,99.90
2022-08-17T05:16:48.671Z,99.90
2022-08-17T05:19:15.842Z,99.90
2022-08-17T05:21:43.123Z,99.90
2022-08-17T05:24:38.466Z,99.90
2022-08-17T05:27:02.625Z,99.90
2022-08-17T05:29:35.627Z,99.90
2022-08-17T05:32:39.054Z,99.90
2022-08-17T05:35:01.402Z,99.90
2022-08-17T05:37:28.559Z,99.90
2022-08-17T05:39:55.718Z,99.90
2022-08-17T05:42:23.000Z,99.90
2022-08-17T05:44:50.182Z,99.90
2022-08-17T05:47:18.501Z,99.90
2022-08-17T05:49:45.711Z,99.90
2022-08-17T05:52:31.131Z,99.90
2022-08-17T05:55:13.327Z,99.90
2022-08-17T05:57:53.580Z,99.90
2022-08-17T06:01:04.210Z,99.90
2022-08-17T06:03:59.416Z,99.90
2022-08-17T06:07:00.720Z,99.90
2022-08-17T06:09:45.868Z,99.90
2022-08-17T06:12:27.947Z,99.90
2022-08-17T06:15:01.624Z,99.90
2022-08-17T06:17:30.092Z,99.90
2022-08-17T06:20:03.252Z,99.90
2022-08-17T06:22:38.649Z,99.90
2022-08-17T06:25:19.147Z,99.90
2022-08-17T06:28:03.166Z,99.90
2022-08-17T06:30:58.571Z,99.90
2022-08-17T06:33:34.435Z,99.90
2022-08-17T06:36:29.482Z,99.90
2022-08-17T06:39:16.884Z,99.90
2022-08-17T06:41:55.142Z,99.90
2022-08-17T06:44:43.583Z,99.90
2022-08-17T06:47:28.756Z,99.90
2022-08-17T06:50:08.802Z,99.90
2022-08-17T06:52:50.102Z,99.90
2022-08-17T06:55:37.891Z,99.90
2022-08-17T06:58:15.687Z,99.90
2022-08-17T07:00:47.301Z,99.50
2022-08-17T07:03:36.027Z,98.80
2022-08-17T07:06:19.816Z,98.80
2022-08-17T07:09:03.933Z,98.00
2022-08-17T07:11:35.732Z,98.70
2022-08-17T07:14:27.071Z,98.10
2022-08-17T07:16:57.331Z,97.80
2022-08-17T07:19:33.117Z,97.20
2022-08-17T07:22:22.132Z,97.00
2022-08-17T07:24:59.759Z,97.00
2022-08-17T07:27:31.242Z,96.30
2022-08-17T07:30:10.838Z,96.40
2022-08-17T07:32:51.348Z,96.10
2022-08-17T07:35:31.342Z,95.30
2022-08-17T07:38:29.382Z,95.30
2022-08-17T07:41:02.775Z,94.80
2022-08-17T07:43:32.526Z,94.80
2022-08-17T07:46:30.319Z,94.20
2022-08-17T07:49:08.351Z,93.50
2022-08-17T07:51:44.250Z,94.10
2022-08-17T07:54:22.542Z,93.10
2022-08-17T07:56:53.981Z,92.80
2022-08-17T07:59:36.852Z,92.80
2022-08-17T08:02:31.881Z,93.10
2022-08-17T08:05:13.182Z,91.90
2022-08-17T08:07:56.107Z,92.40
2022-08-17T08:10:39.116Z,91.30
2022-08-17T08:13:25.891Z,91.40
2022-08-17T08:15:56.657Z,90.70
2022-08-17T08:18:53.438Z,89.60
2022-08-17T08:21:29.239Z,89.80
2022-08-17T08:24:00.588Z,90.60
2022-08-17T08:26:34.241Z,90.90
2022-08-17T08:29:18.441Z,91.20
2022-08-17T08:31:48.632Z,89.70
2022-08-17T08:34:53.227Z,89.80
2022-08-17T08:37:33.743Z,90.70
2022-08-17T08:40:42.080Z,88.80
2022-08-17T08:44:00.962Z,89.80
2022-08-17T08:46:32.378Z,89.10
2022-08-17T08:50:01.813Z,88.20
2022-08-17T08:52:57.572Z,88.70
2022-08-17T08:55:56.982Z,86.90
2022-08-17T08:58:54.172Z,86.40
2022-08-17T09:01:39.484Z,85.10
2022-08-17T09:05:10.689Z,84.50
2022-08-17T09:07:58.697Z,87.30
2022-08-17T09:10:52.206Z,87.10
2022-08-17T09:13:58.143Z,87.40
2022-08-17T09:16:45.192Z,85.30
2022-08-17T09:19:19.662Z,83.40
2022-08-17T09:22:11.676Z,83.00
2022-08-17T09:25:04.922Z,82.30
2022-08-17T09:27:48.312Z,86.70
2022-08-17T09:30:15.777Z,83.30
2022-08-17T09:32:47.271Z,81.80
2022-08-17T09:35:20.325Z,82.30
2022-08-17T09:38:22.918Z,83.00
2022-08-17T09:40:57.148Z,85.10
2022-08-17T09:43:55.592Z,85.10
2022-08-17T09:46:28.822Z,83.40
2022-08-17T09:49:27.361Z,83.90
2022-08-17T09:52:06.107Z,81.90
2022-08-17T09:54:40.559Z,85.50
2022-08-17T09:57:30.347Z,84.40
2022-08-17T10:00:19.072Z,80.00
2022-08-17T10:02:58.400Z,82.20
2022-08-17T10:05:47.216Z,82.10
2022-08-17T10:08:23.549Z,80.10
2022-08-17T10:11:09.330Z,78.60
2022-08-17T10:14:02.895Z,78.40
2022-08-17T10:16:56.655Z,78.60
2022-08-17T10:19:38.415Z,80.40
2022-08-17T10:22:42.305Z,79.00
2022-08-17T10:25:53.555Z,77.90
2022-08-17T10:28:32.225Z,75.40
2022-08-17T10:31:30.973Z,76.30
2022-08-17T10:34:27.485Z,77.00
2022-08-17T10:37:33.612Z,76.20
2022-08-17T10:40:09.869Z,79.10
2022-08-17T10:42:43.869Z,77.80
2022-08-17T10:45:29.705Z,79.50
2022-08-17T10:48:05.234Z,79.80
2022-08-17T10:51:00.359Z,77.70
2022-08-17T10:53:33.715Z,76.40
2022-08-17T10:56:13.289Z,76.50
2022-08-17T10:58:57.452Z,76.00
2022-08-17T11:01:47.761Z,78.70
2022-08-17T11:04:39.267Z,79.50
2022-08-17T11:07:44.035Z,77.50
2022-08-17T11:10:20.886Z,78.00
2022-08-17T11:13:08.994Z,75.80
2022-08-17T11:16:16.459Z,74.70
2022-08-17T11:19:10.529Z,75.30
2022-08-17T11:21:56.758Z,75.90
2022-08-17T11:24:40.083Z,78.20
2022-08-17T11:27:31.158Z,77.20
2022-08-17T11:30:14.873Z,79.00
2022-08-17T11:32:52.907Z,80.60
2022-08-17T11:35:26.839Z,77.10
2022-08-17T11:38:17.093Z,76.50
2022-08-17T11:41:05.634Z,77.60
2022-08-17T11:44:11.710Z,78.70
2022-08-17T11:47:08.225Z,78.80
2022-08-17T11:50:32.069Z,77.60
2022-08-17T11:52:59.221Z,78.20
2022-08-17T11:55:36.342Z,77.70
2022-08-17T11:58:42.969Z,76.00
2022-08-17T12:01:24.514Z,76.40
2022-08-17T12:04:12.859Z,80.30
2022-08-17T12:06:52.360Z,77.10
2022-08-17T12:09:24.794Z,76.30
2022-08-17T12:12:13.864Z,76.40
2022-08-17T12:17:41.919Z,78.20
2022-08-17T12:20:33.481Z,77.80
2022-08-17T12:23:44.144Z,75.90
2022-08-17T12:26:31.841Z,75.70
2022-08-17T12:29:03.249Z,76.90
2022-08-17T12:31:43.311Z,77.30
2022-08-17T12:34:24.493Z,77.00
2022-08-17T12:36:53.969Z,74.80
2022-08-17T12:39:24.922Z,74.00
2022-08-17T12:42:01.977Z,73.90
2022-08-17T12:44:46.145Z,71.00
2022-08-17T12:47:22.761Z,73.40
2022-08-17T12:49:53.147Z,71.20
2022-08-17T12:52:20.419Z,73.10
2022-08-17T12:54:55.638Z,74.60
2022-08-17T12:57:27.721Z,73.30
2022-08-17T13:00:02.053Z,73.60
2022-08-17T13:02:41.853Z,72.90
2022-08-17T13:05:25.269Z,72.30
2022-08-17T13:07:57.884Z,73.00
2022-08-17T13:10:33.361Z,73.10
2022-08-17T13:13:05.634Z,72.00
2022-08-17T13:15:44.734Z,71.90
2022-08-17T13:18:40.584Z,74.20
2022-08-17T13:21:28.408Z,73.90
2022-08-17T13:24:00.066Z,73.30
2022-08-17T13:26:38.957Z,73.70
2022-08-17T13:29:16.929Z,75.30
2022-08-17T13:31:53.020Z,76.40
2022-08-17T13:34:28.469Z,74.60
2022-08-17T13:37:27.315Z,76.00
2022-08-17T13:40:12.062Z,72.80
2022-08-17T13:42:51.843Z,71.90
2022-08-17T13:45:36.647Z,73.50
2022-08-17T13:48:11.121Z,73.80
2022-08-17T13:50:59.809Z,75.00
2022-08-17T13:53:33.218Z,74.40
2022-08-17T13:56:33.364Z,73.70
2022-08-17T13:59:12.909Z,74.30
2022-08-17T14:01:42.265Z,75.20
2022-08-17T14:04:19.881Z,74.10
2022-08-17T14:06:54.996Z,72.70
2022-08-17T14:09:26.034Z,73.90
2022-08-17T14:11:55.008Z,74.00
2022-08-17T14:14:23.432Z,74.10
2022-08-17T14:16:52.026Z,74.30
2022-08-17T14:19:22.396Z,75.40
2022-08-17T14:21:50.258Z,75.50
2022-08-17T14:24:29.424Z,75.10
2022-08-17T14:26:57.630Z,72.80
2022-08-17T14:29:28.015Z,74.10
2022-08-17T14:31:56.960Z,75.50
2022-08-17T14:34:25.765Z,75.40
2022-08-17T14:36:53.615Z,75.20
2022-08-17T14:39:21.225Z,74.20
2022-08-17T14:41:49.245Z,74.70
2022-08-17T14:44:16.880Z,73.00
2022-08-17T14:46:45.189Z,72.30
2022-08-17T14:49:16.597Z,73.80
2022-08-17T14:51:44.687Z,72.30
2022-08-17T14:54:33.026Z,73.50
2022-08-17T14:57:23.110Z,71.90
2022-08-17T14:59:54.231Z,73.70
2022-08-17T15:02:29.768Z,71.70
2022-08-17T15:05:06.136Z,70.80
2022-08-17T15:07:33.647Z,72.60
2022-08-17T15:10:02.368Z,73.40
2022-08-17T15:12:34.127Z,72.40
2022-08-17T15:15:05.289Z,73.00
2022-08-17T15:17:44.298Z,73.20
2022-08-17T15:20:22.170Z,72.40
2022-08-17T15:22:50.159Z,72.60
2022-08-17T15:25:19.302Z,73.00
2022-08-17T15:27:47.068Z,73.60
2022-08-17T15:30:15.095Z,72.10
2022-08-17T15:32:45.790Z,71.90
2022-08-17T15:35:19.083Z,72.50
2022-08-17T15:37:54.312Z,72.10
2022-08-17T15:40:21.473Z,71.60
2022-08-17T15:42:51.227Z,73.50
2022-08-17T15:45:23.202Z,75.80
2022-08-17T15:47:50.889Z,74.30
2022-08-17T15:50:18.450Z,73.90
2022-08-17T15:52:47.677Z,74.50
2022-08-17T15:55:16.139Z,73.50
2022-08-17T15:57:44.304Z,73.60
2022-08-17T16:00:11.770Z,74.60
2022-08-17T16:03:14.118Z,75.30
2022-08-17T16:05:30.151Z,76.00
2022-08-17T16:07:59.855Z,78.00
2022-08-17T16:10:35.075Z,75.40
2022-08-17T16:13:02.745Z,76.80
2022-08-17T16:15:32.031Z,77.40
2022-08-17T16:17:59.804Z,77.20
2022-08-17T16:20:27.758Z,77.30
2022-08-17T16:22:57.021Z,76.50
2022-08-17T16:25:38.389Z,76.90
2022-08-17T16:28:35.989Z,77.20
2022-08-17T17:39:58.641Z,80.90
2022-08-17T17:42:34.130Z,81.10
2022-08-17T17:45:33.060Z,81.20
2022-08-17T17:48:01.794Z,80.90
2022-08-17T17:50:54.410Z,82.10
2022-08-17T17:53:51.951Z,82.00
2022-08-17T17:56:47.550Z,81.80
2022-08-17T17:59:33.585Z,82.30
2022-08-17T18:02:52.100Z,82.90
2022-08-17T18:05:51.172Z,83.00
2022-08-17T18:08:41.890Z,82.70
2022-08-17T18:11:25.440Z,82.00
2022-08-17T18:14:33.303Z,82.90
2022-08-17T18:17:10.603Z,82.70
2022-08-17T18:19:44.430Z,82.60
2022-08-17T18:22:24.529Z,82.10
2022-08-17T18:24:59.645Z,82.10
2022-08-17T18:27:52.505Z,82.10
2022-08-17T18:30:30.064Z,82.50
2022-08-17T18:33:23.609Z,83.10
2022-08-17T18:35:58.776Z,83.60
2022-08-17T18:38:42.893Z,83.90
2022-08-17T18:41:26.055Z,83.60
2022-08-17T18:44:16.829Z,83.70
2022-08-17T18:46:44.189Z,83.80
2022-08-17T18:49:28.898Z,83.30
2022-08-17T18:52:29.328Z,83.70
2022-08-17T18:55:23.181Z,85.00
2022-08-17T18:58:13.565Z,85.20
2022-08-17T19:00:48.805Z,84.70
2022-08-17T19:03:25.390Z,84.90
2022-08-17T19:06:52.291Z,84.90
2022-08-17T19:10:04.137Z,84.70
2022-08-17T19:13:03.192Z,84.90
2022-08-17T19:16:12.148Z,84.90
2022-08-17T19:19:24.976Z,85.20
2022-08-17T19:22:02.780Z,85.60
2022-08-17T19:24:47.436Z,85.70
2022-08-17T19:27:41.762Z,86.00
2022-08-17T19:30:28.505Z,86.20
2022-08-17T19:32:58.615Z,86.40
2022-08-17T19:35:52.857Z,86.60
2022-08-17T19:38:45.470Z,86.40
2022-08-17T19:41:41.033Z,86.30
2022-08-17T19:44:51.986Z,86.70
2022-08-17T19:47:55.904Z,86.50
2022-08-17T19:51:03.311Z,86.80
2022-08-17T19:54:05.337Z,86.90
2022-08-17T19:57:13.663Z,87.20
2022-08-17T20:00:17.410Z,86.70
2022-08-17T20:02:58.882Z,86.50
2022-08-17T20:06:11.935Z,87.00
2022-08-17T20:08:50.094Z,83.40
2022-08-17T20:11:56.986Z,88.60
2022-08-17T20:14:57.329Z,87.60
2022-08-17T20:17:32.035Z,90.00
2022-08-17T20:20:43.535Z,89.10
2022-08-17T20:23:53.250Z,90.00
2022-08-17T20:26:55.233Z,93.60
2022-08-17T20:29:56.031Z,90.10
2022-08-17T20:32:29.781Z,87.90
2022-08-17T20:35:21.128Z,87.30
2022-08-17T20:38:16.611Z,86.70
2022-08-17T20:41:07.440Z,86.60
2022-08-17T20:43:45.164Z,86.80
2022-08-17T20:46:30.710Z,87.40
2022-08-17T20:49:25.477Z,88.10
2022-08-17T20:52:13.785Z,88.20
2022-08-17T20:54:44.075Z,87.80
2022-08-17T20:57:36.464Z,87.50
2022-08-17T21:00:32.131Z,87.80
2022-08-17T21:03:49.270Z,88.30
2022-08-17T21:06:19.370Z,89.30
2022-08-17T21:09:31.101Z,88.70
2022-08-17T21:12:05.667Z,88.70
2022-08-17T21:15:19.156Z,89.00
2022-08-17T21:18:29.989Z,90.00
2022-08-17T21:21:46.790Z,90.10
2022-08-17T21:24:36.295Z,90.10
2022-08-17T21:27:31.615Z,90.20
2022-08-17T21:30:11.845Z,90.00
2022-08-17T21:33:13.420Z,89.90
2022-08-17T21:36:01.542Z,89.10
2022-08-17T21:38:40.520Z,88.00
2022-08-17T21:41:18.870Z,87.70
2022-08-17T21:43:53.399Z,87.70
2022-08-17T21:46:38.680Z,88.90
2022-08-17T21:49:14.302Z,89.70
2022-08-17T21:51:54.978Z,90.00
2022-08-17T21:54:41.290Z,90.20
2022-08-17T21:57:38.446Z,90.50
2022-08-17T22:00:21.681Z,90.80
2022-08-17T22:03:00.936Z,91.50
2022-08-17T22:05:40.756Z,91.80
2022-08-17T22:08:24.832Z,92.10
2022-08-17T22:11:06.556Z,92.10
2022-08-17T22:13:41.222Z,92.30
2022-08-17T22:16:28.336Z,92.40
2022-08-17T22:19:00.626Z,92.30
2022-08-17T22:21:36.695Z,92.30
2022-08-17T22:24:22.920Z,92.10
2022-08-17T22:27:08.828Z,91.90
2022-08-17T22:29:47.825Z,92.10
2022-08-17T22:32:47.742Z,91.30
2022-08-17T22:35:39.836Z,90.50
2022-08-17T22:38:38.600Z,90.60
2022-08-17T22:41:45.106Z,90.80
2022-08-17T22:44:32.961Z,90.60
2022-08-17T22:47:43.280Z,90.80
2022-08-17T22:50:26.027Z,90.30
2022-08-17T22:53:22.001Z,90.20
2022-08-17T22:56:18.563Z,90.30
2022-08-17T22:59:13.551Z,90.60
2022-08-17T23:01:46.272Z,90.90
2022-08-17T23:04:47.542Z,91.20
2022-08-17T23:07:18.672Z,91.10
2022-08-17T23:09:49.143Z,90.80
2022-08-17T23:12:25.563Z,90.50
2022-08-17T23:15:00.953Z,90.30
2022-08-17T23:17:37.138Z,90.30
2022-08-17T23:20:13.587Z,90.60
2022-08-17T23:22:52.287Z,90.90
2022-08-17T23:25:33.347Z,91.30
2022-08-17T23:28:05.236Z,91.80
2022-08-17T23:30:35.807Z,91.80
2022-08-17T23:33:09.297Z,92.00
2022-08-17T23:35:39.116Z,92.90
2022-08-17T23:38:16.808Z,93.30
2022-08-17T23:40:48.303Z,93.60
2022-08-17T23:43:25.584Z,93.00
2022-08-17T23:45:58.638Z,93.00
2022-08-17T23:48:35.938Z,93.60
2022-08-17T23:51:20.662Z,94.20
2022-08-17T23:53:55.316Z,94.40
2022-08-17T23:56:26.402Z,94.50
2022-08-17T23:58:57.401Z,94.70
